sensor_id;sensor_type;location;lat;lon;timestamp;P1;durP1;ratioP1;P2;durP2;ratioP2
52564;SDS011;38460;53.106;7.004;2022-09-09T00:00:06;13.98;;;9.35;;
52564;SDS011;38460;53.106;7.004;2022-09-09T00:02:41;13.50;;;9.57;;
52564;SDS011;38460;53.106;7.004;2022-09-09T00:05:59;12.73;;;9.23;;
52564;SDS011;38460;53.106;7.004;2022-09-09T00:08:18;16.40;;;9.82;;
52564;SDS011;38460;53.106;7.004;2022-09-09T00:10:47;12.05;;;9.30;;
52564;SDS011;38460;53.106;7.004;2022-09-09T00:13:26;15.50;;;9.82;;
52564;SDS011;38460;53.106;7.004;2022-09-09T00:16:13;13.60;;;9.98;;
52564;SDS011;38460;53.106;7.004;2022-09-09T00:21:38;13.02;;;9.68;;
52564;SDS011;38460;53.106;7.004;2022-09-09T00:24:17;13.75;;;9.82;;
52564;SDS011;38460;53.106;7.004;2022-09-09T00:27:07;13.05;;;9.95;;
52564;SDS011;38460;53.106;7.004;2022-09-09T00:29:47;15.93;;;10.18;;
52564;SDS011;38460;53.106;7.004;2022-09-09T00:32:20;14.15;;;10.07;;
52564;SDS011;38460;53.106;7.004;2022-09-09T00:37:16;15.95;;;10.18;;
52564;SDS011;38460;53.106;7.004;2022-09-09T00:39:43;14.27;;;9.68;;
52564;SDS011;38460;53.106;7.004;2022-09-09T00:42:20;13.57;;;9.13;;
52564;SDS011;38460;53.106;7.004;2022-09-09T00:45:02;16.25;;;10.50;;
52564;SDS011;38460;53.106;7.004;2022-09-09T00:47:50;16.13;;;9.18;;
52564;SDS011;38460;53.106;7.004;2022-09-09T00:58:41;0.00;;;0.00;;
52564;SDS011;38460;53.106;7.004;2022-09-09T01:01:15;14.15;;;9.88;;
52564;SDS011;38460;53.106;7.004;2022-09-09T01:03:54;15.43;;;8.25;;
52564;SDS011;38460;53.106;7.004;2022-09-09T01:17:04;15.45;;;9.05;;
52564;SDS011;38460;53.106;7.004;2022-09-09T01:27:30;14.85;;;10.20;;
52564;SDS011;38460;53.106;7.004;2022-09-09T01:29:57;13.30;;;8.85;;
52564;SDS011;38460;53.106;7.004;2022-09-09T01:37:56;14.18;;;9.63;;
52564;SDS011;38460;53.106;7.004;2022-09-09T01:40:22;15.13;;;9.52;;
52564;SDS011;38460;53.106;7.004;2022-09-09T01:42:49;14.38;;;9.63;;
52564;SDS011;38460;53.106;7.004;2022-09-09T01:45:15;13.18;;;9.82;;
52564;SDS011;38460;53.106;7.004;2022-09-09T01:47:41;14.35;;;9.02;;
52564;SDS011;38460;53.106;7.004;2022-09-09T01:50:07;13.50;;;9.43;;
52564;SDS011;38460;53.106;7.004;2022-09-09T01:52:36;13.38;;;9.50;;
52564;SDS011;38460;53.106;7.004;2022-09-09T01:55:03;15.13;;;10.30;;
52564;SDS011;38460;53.106;7.004;2022-09-09T01:57:41;14.32;;;9.10;;
52564;SDS011;38460;53.106;7.004;2022-09-09T02:00:18;15.60;;;9.45;;
52564;SDS011;38460;53.106;7.004;2022-09-09T02:09:04;14.02;;;7.97;;
52564;SDS011;38460;53.106;7.004;2022-09-09T02:11:31;14.10;;;8.90;;
52564;SDS011;38460;53.106;7.004;2022-09-09T02:14:06;13.50;;;8.73;;
52564;SDS011;38460;53.106;7.004;2022-09-09T02:16:40;13.10;;;7.88;;
52564;SDS011;38460;53.106;7.004;2022-09-09T02:19:27;14.93;;;9.25;;
52564;SDS011;38460;53.106;7.004;2022-09-09T02:21:57;11.82;;;8.10;;
52564;SDS011;38460;53.106;7.004;2022-09-09T02:24:26;11.88;;;8.20;;
52564;SDS011;38460;53.106;7.004;2022-09-09T02:26:54;14.40;;;8.20;;
52564;SDS011;38460;53.106;7.004;2022-09-09T02:29:25;13.30;;;7.53;;
52564;SDS011;38460;53.106;7.004;2022-09-09T02:31:57;13.00;;;8.68;;
52564;SDS011;38460;53.106;7.004;2022-09-09T02:34:30;11.68;;;8.07;;
52564;SDS011;38460;53.106;7.004;2022-09-09T02:36:59;10.65;;;6.97;;
52564;SDS011;38460;53.106;7.004;2022-09-09T02:39:28;10.43;;;7.18;;
52564;SDS011;38460;53.106;7.004;2022-09-09T02:41:53;12.32;;;8.23;;
52564;SDS011;38460;53.106;7.004;2022-09-09T02:44:19;11.57;;;8.45;;
52564;SDS011;38460;53.106;7.004;2022-09-09T02:52:27;14.57;;;7.60;;
52564;SDS011;38460;53.106;7.004;2022-09-09T02:55:23;10.95;;;6.93;;
52564;SDS011;38460;53.106;7.004;2022-09-09T02:58:09;15.35;;;8.18;;
52564;SDS011;38460;53.106;7.004;2022-09-09T03:00:38;10.05;;;6.75;;
52564;SDS011;38460;53.106;7.004;2022-09-09T03:03:05;15.73;;;8.77;;
52564;SDS011;38460;53.106;7.004;2022-09-09T03:05:31;12.55;;;7.38;;
52564;SDS011;38460;53.106;7.004;2022-09-09T03:07:57;10.23;;;7.28;;
52564;SDS011;38460;53.106;7.004;2022-09-09T03:10:24;11.98;;;7.82;;
52564;SDS011;38460;53.106;7.004;2022-09-09T03:12:49;11.82;;;6.82;;
52564;SDS011;38460;53.106;7.004;2022-09-09T03:15:15;12.50;;;7.57;;
52564;SDS011;38460;53.106;7.004;2022-09-09T03:17:41;12.60;;;6.50;;
52564;SDS011;38460;53.106;7.004;2022-09-09T03:20:07;13.13;;;7.30;;
52564;SDS011;38460;53.106;7.004;2022-09-09T03:22:33;11.68;;;7.40;;
52564;SDS011;38460;53.106;7.004;2022-09-09T03:25:00;11.23;;;7.88;;
52564;SDS011;38460;53.106;7.004;2022-09-09T03:27:27;11.05;;;7.15;;
52564;SDS011;38460;53.106;7.004;2022-09-09T03:29:52;11.57;;;6.78;;
52564;SDS011;38460;53.106;7.004;2022-09-09T03:32:18;14.70;;;7.55;;
52564;SDS011;38460;53.106;7.004;2022-09-09T03:34:47;11.52;;;7.15;;
52564;SDS011;38460;53.106;7.004;2022-09-09T03:37:14;9.93;;;6.55;;
52564;SDS011;38460;53.106;7.004;2022-09-09T03:39:41;12.35;;;7.22;;
52564;SDS011;38460;53.106;7.004;2022-09-09T03:42:07;15.05;;;7.50;;
52564;SDS011;38460;53.106;7.004;2022-09-09T03:44:33;14.13;;;7.40;;
52564;SDS011;38460;53.106;7.004;2022-09-09T03:46:59;11.63;;;6.82;;
52564;SDS011;38460;53.106;7.004;2022-09-09T03:49:27;9.88;;;6.40;;
52564;SDS011;38460;53.106;7.004;2022-09-09T03:51:56;13.15;;;7.30;;
52564;SDS011;38460;53.106;7.004;2022-09-09T03:54:23;13.00;;;7.22;;
52564;SDS011;38460;53.106;7.004;2022-09-09T03:56:49;12.80;;;7.28;;
52564;SDS011;38460;53.106;7.004;2022-09-09T03:59:15;14.35;;;7.25;;
52564;SDS011;38460;53.106;7.004;2022-09-09T04:01:41;12.07;;;7.18;;
52564;SDS011;38460;53.106;7.004;2022-09-09T04:04:06;11.38;;;7.45;;
52564;SDS011;38460;53.106;7.004;2022-09-09T04:06:32;14.57;;;7.93;;
52564;SDS011;38460;53.106;7.004;2022-09-09T04:08:58;11.48;;;6.90;;
52564;SDS011;38460;53.106;7.004;2022-09-09T04:11:24;9.75;;;6.25;;
52564;SDS011;38460;53.106;7.004;2022-09-09T04:13:49;13.60;;;6.97;;
52564;SDS011;38460;53.106;7.004;2022-09-09T04:16:15;10.13;;;6.82;;
52564;SDS011;38460;53.106;7.004;2022-09-09T04:18:41;11.80;;;7.30;;
52564;SDS011;38460;53.106;7.004;2022-09-09T04:21:08;13.68;;;8.02;;
52564;SDS011;38460;53.106;7.004;2022-09-09T04:23:35;14.48;;;8.60;;
52564;SDS011;38460;53.106;7.004;2022-09-09T04:26:01;13.65;;;8.63;;
52564;SDS011;38460;53.106;7.004;2022-09-09T04:28:28;9.43;;;7.43;;
52564;SDS011;38460;53.106;7.004;2022-09-09T04:30:55;10.73;;;7.18;;
52564;SDS011;38460;53.106;7.004;2022-09-09T04:33:25;15.40;;;7.97;;
52564;SDS011;38460;53.106;7.004;2022-09-09T04:35:51;13.13;;;8.40;;
52564;SDS011;38460;53.106;7.004;2022-09-09T04:38:19;13.20;;;8.82;;
52564;SDS011;38460;53.106;7.004;2022-09-09T04:40:47;14.45;;;8.63;;
52564;SDS011;38460;53.106;7.004;2022-09-09T04:43:14;11.77;;;8.07;;
52564;SDS011;38460;53.106;7.004;2022-09-09T04:45:41;14.00;;;8.55;;
52564;SDS011;38460;53.106;7.004;2022-09-09T04:48:08;14.13;;;7.90;;
52564;SDS011;38460;53.106;7.004;2022-09-09T04:50:34;15.80;;;8.13;;
52564;SDS011;38460;53.106;7.004;2022-09-09T04:53:04;11.75;;;7.63;;
52564;SDS011;38460;53.106;7.004;2022-09-09T04:55:30;10.88;;;6.80;;
52564;SDS011;38460;53.106;7.004;2022-09-09T04:57:56;10.25;;;7.50;;
52564;SDS011;38460;53.106;7.004;2022-09-09T05:00:23;11.77;;;8.18;;
52564;SDS011;38460;53.106;7.004;2022-09-09T05:02:49;10.27;;;7.50;;
52564;SDS011;38460;53.106;7.004;2022-09-09T05:05:15;11.80;;;7.00;;
52564;SDS011;38460;53.106;7.004;2022-09-09T05:07:41;10.13;;;7.28;;
52564;SDS011;38460;53.106;7.004;2022-09-09T05:10:08;11.52;;;7.20;;
52564;SDS011;38460;53.106;7.004;2022-09-09T05:12:35;12.15;;;7.00;;
52564;SDS011;38460;53.106;7.004;2022-09-09T05:15:01;9.65;;;6.43;;
52564;SDS011;38460;53.106;7.004;2022-09-09T05:17:27;10.20;;;6.35;;
52564;SDS011;38460;53.106;7.004;2022-09-09T05:19:53;9.05;;;6.35;;
52564;SDS011;38460;53.106;7.004;2022-09-09T05:22:19;9.25;;;7.05;;
52564;SDS011;38460;53.106;7.004;2022-09-09T05:24:45;9.02;;;5.82;;
52564;SDS011;38460;53.106;7.004;2022-09-09T05:27:11;9.40;;;6.22;;
52564;SDS011;38460;53.106;7.004;2022-09-09T05:29:37;10.40;;;5.97;;
52564;SDS011;38460;53.106;7.004;2022-09-09T05:32:03;10.90;;;5.65;;
52564;SDS011;38460;53.106;7.004;2022-09-09T05:34:30;11.77;;;5.43;;
52564;SDS011;38460;53.106;7.004;2022-09-09T05:36:55;10.93;;;6.50;;
52564;SDS011;38460;53.106;7.004;2022-09-09T05:39:21;9.10;;;6.15;;
52564;SDS011;38460;53.106;7.004;2022-09-09T05:41:47;9.35;;;5.85;;
52564;SDS011;38460;53.106;7.004;2022-09-09T05:44:12;11.05;;;6.55;;
52564;SDS011;38460;53.106;7.004;2022-09-09T05:46:38;13.48;;;6.63;;
52564;SDS011;38460;53.106;7.004;2022-09-09T05:49:04;11.43;;;6.78;;
52564;SDS011;38460;53.106;7.004;2022-09-09T05:51:31;12.73;;;7.68;;
52564;SDS011;38460;53.106;7.004;2022-09-09T05:53:57;12.93;;;7.05;;
52564;SDS011;38460;53.106;7.004;2022-09-09T05:56:27;10.60;;;6.47;;
52564;SDS011;38460;53.106;7.004;2022-09-09T05:58:53;10.30;;;6.20;;
52564;SDS011;38460;53.106;7.004;2022-09-09T06:04:12;10.07;;;6.90;;
52564;SDS011;38460;53.106;7.004;2022-09-09T06:06:40;9.32;;;6.65;;
52564;SDS011;38460;53.106;7.004;2022-09-09T06:09:07;9.68;;;6.93;;
52564;SDS011;38460;53.106;7.004;2022-09-09T06:11:35;9.65;;;6.18;;
52564;SDS011;38460;53.106;7.004;2022-09-09T06:14:03;8.73;;;6.57;;
52564;SDS011;38460;53.106;7.004;2022-09-09T06:16:29;8.82;;;6.13;;
52564;SDS011;38460;53.106;7.004;2022-09-09T06:18:57;9.85;;;6.38;;
52564;SDS011;38460;53.106;7.004;2022-09-09T06:23:51;10.43;;;6.40;;
52564;SDS011;38460;53.106;7.004;2022-09-09T06:26:25;10.00;;;6.95;;
52564;SDS011;38460;53.106;7.004;2022-09-09T06:28:55;10.98;;;6.57;;
52564;SDS011;38460;53.106;7.004;2022-09-09T06:31:23;12.55;;;6.65;;
52564;SDS011;38460;53.106;7.004;2022-09-09T06:33:51;13.68;;;7.78;;
52564;SDS011;38460;53.106;7.004;2022-09-09T06:36:24;10.80;;;7.90;;
52564;SDS011;38460;53.106;7.004;2022-09-09T06:38:57;9.73;;;6.65;;
52564;SDS011;38460;53.106;7.004;2022-09-09T06:41:26;12.25;;;7.70;;
52564;SDS011;38460;53.106;7.004;2022-09-09T06:43:54;10.63;;;6.85;;
52564;SDS011;38460;53.106;7.004;2022-09-09T06:46:23;12.48;;;7.00;;
52564;SDS011;38460;53.106;7.004;2022-09-09T06:48:54;14.05;;;7.75;;
52564;SDS011;38460;53.106;7.004;2022-09-09T06:51:21;11.57;;;8.02;;
52564;SDS011;38460;53.106;7.004;2022-09-09T06:53:51;11.75;;;7.30;;
52564;SDS011;38460;53.106;7.004;2022-09-09T06:58:53;10.23;;;6.47;;
52564;SDS011;38460;53.106;7.004;2022-09-09T07:01:21;8.90;;;7.22;;
52564;SDS011;38460;53.106;7.004;2022-09-09T07:03:49;10.27;;;7.60;;
52564;SDS011;38460;53.106;7.004;2022-09-09T07:06:18;8.93;;;7.00;;
52564;SDS011;38460;53.106;7.004;2022-09-09T07:08:52;10.48;;;6.90;;
52564;SDS011;38460;53.106;7.004;2022-09-09T07:11:20;10.75;;;7.05;;
52564;SDS011;38460;53.106;7.004;2022-09-09T07:13:48;9.73;;;5.97;;
52564;SDS011;38460;53.106;7.004;2022-09-09T07:16:15;9.05;;;6.70;;
52564;SDS011;38460;53.106;7.004;2022-09-09T07:18:42;8.48;;;5.72;;
52564;SDS011;38460;53.106;7.004;2022-09-09T07:21:09;9.70;;;6.32;;
52564;SDS011;38460;53.106;7.004;2022-09-09T07:23:39;8.88;;;6.50;;
52564;SDS011;38460;53.106;7.004;2022-09-09T07:26:09;10.85;;;6.72;;
52564;SDS011;38460;53.106;7.004;2022-09-09T07:28:39;10.13;;;6.70;;
52564;SDS011;38460;53.106;7.004;2022-09-09T07:31:06;9.27;;;5.70;;
52564;SDS011;38460;53.106;7.004;2022-09-09T07:33:38;11.30;;;6.80;;
52564;SDS011;38460;53.106;7.004;2022-09-09T07:38:52;9.10;;;6.10;;
52564;SDS011;38460;53.106;7.004;2022-09-09T07:41:29;10.60;;;6.72;;
52564;SDS011;38460;53.106;7.004;2022-09-09T07:43:59;8.52;;;5.50;;
52564;SDS011;38460;53.106;7.004;2022-09-09T07:46:29;7.53;;;5.50;;
52564;SDS011;38460;53.106;7.004;2022-09-09T07:48:55;9.52;;;5.93;;
52564;SDS011;38460;53.106;7.004;2022-09-09T07:53:53;9.45;;;6.10;;
52564;SDS011;38460;53.106;7.004;2022-09-09T07:56:20;7.75;;;5.20;;
52564;SDS011;38460;53.106;7.004;2022-09-09T07:58:50;8.25;;;6.47;;
52564;SDS011;38460;53.106;7.004;2022-09-09T08:01:22;10.07;;;5.78;;
52564;SDS011;38460;53.106;7.004;2022-09-09T08:03:56;7.65;;;5.75;;
52564;SDS011;38460;53.106;7.004;2022-09-09T08:06:28;9.45;;;5.82;;
52564;SDS011;38460;53.106;7.004;2022-09-09T08:08:55;7.95;;;5.65;;
52564;SDS011;38460;53.106;7.004;2022-09-09T08:11:22;7.82;;;5.10;;
52564;SDS011;38460;53.106;7.004;2022-09-09T08:13:50;7.72;;;5.80;;
52564;SDS011;38460;53.106;7.004;2022-09-09T08:16:17;8.45;;;5.88;;
52564;SDS011;38460;53.106;7.004;2022-09-09T08:18:47;8.93;;;6.00;;
52564;SDS011;38460;53.106;7.004;2022-09-09T08:21:18;11.85;;;5.93;;
52564;SDS011;38460;53.106;7.004;2022-09-09T08:23:46;7.40;;;5.00;;
52564;SDS011;38460;53.106;7.004;2022-09-09T08:26:17;8.73;;;5.38;;
52564;SDS011;38460;53.106;7.004;2022-09-09T08:28:47;6.30;;;4.80;;
52564;SDS011;38460;53.106;7.004;2022-09-09T08:31:17;8.85;;;5.15;;
52564;SDS011;38460;53.106;7.004;2022-09-09T08:33:44;7.57;;;5.15;;
52564;SDS011;38460;53.106;7.004;2022-09-09T08:36:12;7.15;;;4.72;;
52564;SDS011;38460;53.106;7.004;2022-09-09T08:38:43;9.45;;;5.22;;
52564;SDS011;38460;53.106;7.004;2022-09-09T08:41:14;7.18;;;4.80;;
52564;SDS011;38460;53.106;7.004;2022-09-09T08:44:07;8.50;;;5.63;;
52564;SDS011;38460;53.106;7.004;2022-09-09T08:49:28;8.52;;;5.13;;
52564;SDS011;38460;53.106;7.004;2022-09-09T08:52:26;8.60;;;5.40;;
52564;SDS011;38460;53.106;7.004;2022-09-09T08:55:25;7.22;;;5.00;;
52564;SDS011;38460;53.106;7.004;2022-09-09T08:57:58;8.60;;;5.30;;
52564;SDS011;38460;53.106;7.004;2022-09-09T09:00:34;7.07;;;5.65;;
52564;SDS011;38460;53.106;7.004;2022-09-09T09:03:14;10.43;;;5.97;;
52564;SDS011;38460;53.106;7.004;2022-09-09T09:06:13;7.47;;;5.88;;
52564;SDS011;38460;53.106;7.004;2022-09-09T09:11:39;10.93;;;5.63;;
52564;SDS011;38460;53.106;7.004;2022-09-09T09:14:14;7.22;;;5.53;;
52564;SDS011;38460;53.106;7.004;2022-09-09T09:16:55;8.77;;;5.20;;
52564;SDS011;38460;53.106;7.004;2022-09-09T09:19:21;7.85;;;5.13;;
52564;SDS011;38460;53.106;7.004;2022-09-09T09:21:53;6.13;;;5.43;;
52564;SDS011;38460;53.106;7.004;2022-09-09T09:27:04;7.97;;;5.43;;
52564;SDS011;38460;53.106;7.004;2022-09-09T09:30:04;8.32;;;5.47;;
52564;SDS011;38460;53.106;7.004;2022-09-09T09:32:39;11.77;;;5.55;;
52564;SDS011;38460;53.106;7.004;2022-09-09T09:35:16;11.60;;;5.43;;
52564;SDS011;38460;53.106;7.004;2022-09-09T09:37:42;8.68;;;5.15;;
52564;SDS011;38460;53.106;7.004;2022-09-09T09:40:12;7.75;;;4.90;;
52564;SDS011;38460;53.106;7.004;2022-09-09T09:42:53;6.88;;;4.88;;
52564;SDS011;38460;53.106;7.004;2022-09-09T09:48:06;9.90;;;6.47;;
52564;SDS011;38460;53.106;7.004;2022-09-09T09:50:35;7.60;;;5.50;;
52564;SDS011;38460;53.106;7.004;2022-09-09T09:55:57;9.57;;;5.97;;
52564;SDS011;38460;53.106;7.004;2022-09-09T09:58:25;9.77;;;5.13;;
52564;SDS011;38460;53.106;7.004;2022-09-09T10:00:56;8.55;;;4.63;;
52564;SDS011;38460;53.106;7.004;2022-09-09T10:03:32;8.27;;;4.75;;
52564;SDS011;38460;53.106;7.004;2022-09-09T10:06:04;8.10;;;4.53;;
52564;SDS011;38460;53.106;7.004;2022-09-09T10:08:32;7.30;;;4.38;;
52564;SDS011;38460;53.106;7.004;2022-09-09T10:14:15;8.38;;;3.17;;
52564;SDS011;38460;53.106;7.004;2022-09-09T10:19:36;7.82;;;3.03;;
52564;SDS011;38460;53.106;7.004;2022-09-09T10:22:15;11.23;;;3.00;;
52564;SDS011;38460;53.106;7.004;2022-09-09T10:27:38;9.05;;;3.45;;
52564;SDS011;38460;53.106;7.004;2022-09-09T10:30:19;8.15;;;2.83;;
52564;SDS011;38460;53.106;7.004;2022-09-09T10:33:08;7.55;;;2.47;;
52564;SDS011;38460;53.106;7.004;2022-09-09T10:39:01;4.43;;;2.50;;
52564;SDS011;38460;53.106;7.004;2022-09-09T10:47:03;8.45;;;3.20;;
52564;SDS011;38460;53.106;7.004;2022-09-09T10:49:59;5.10;;;2.55;;
52564;SDS011;38460;53.106;7.004;2022-09-09T10:55:45;8.30;;;2.92;;
52564;SDS011;38460;53.106;7.004;2022-09-09T10:58:28;6.13;;;2.20;;
52564;SDS011;38460;53.106;7.004;2022-09-09T11:01:17;4.97;;;2.67;;
52564;SDS011;38460;53.106;7.004;2022-09-09T11:03:49;6.00;;;1.90;;
52564;SDS011;38460;53.106;7.004;2022-09-09T11:06:22;6.22;;;2.30;;
52564;SDS011;38460;53.106;7.004;2022-09-09T11:08:54;5.32;;;2.30;;
52564;SDS011;38460;53.106;7.004;2022-09-09T11:11:30;6.20;;;1.85;;
52564;SDS011;38460;53.106;7.004;2022-09-09T11:16:39;5.50;;;1.98;;
52564;SDS011;38460;53.106;7.004;2022-09-09T11:19:14;6.10;;;1.80;;
52564;SDS011;38460;53.106;7.004;2022-09-09T11:21:49;5.00;;;1.88;;
52564;SDS011;38460;53.106;7.004;2022-09-09T11:24:21;4.03;;;1.75;;
52564;SDS011;38460;53.106;7.004;2022-09-09T11:26:53;5.55;;;2.05;;
52564;SDS011;38460;53.106;7.004;2022-09-09T11:43:00;7.07;;;2.47;;
52564;SDS011;38460;53.106;7.004;2022-09-09T11:45:38;5.25;;;2.08;;
52564;SDS011;38460;53.106;7.004;2022-09-09T11:48:20;7.10;;;2.30;;
52564;SDS011;38460;53.106;7.004;2022-09-09T11:56:23;3.95;;;1.80;;
52564;SDS011;38460;53.106;7.004;2022-09-09T11:59:28;5.53;;;1.98;;
52564;SDS011;38460;53.106;7.004;2022-09-09T12:02:18;6.75;;;1.80;;
52564;SDS011;38460;53.106;7.004;2022-09-09T12:07:37;5.57;;;1.60;;
52564;SDS011;38460;53.106;7.004;2022-09-09T12:12:36;5.03;;;1.58;;
52564;SDS011;38460;53.106;7.004;2022-09-09T12:17:37;4.18;;;1.67;;
52564;SDS011;38460;53.106;7.004;2022-09-09T12:22:52;6.47;;;1.52;;
52564;SDS011;38460;53.106;7.004;2022-09-09T12:30:46;4.68;;;1.50;;
52564;SDS011;38460;53.106;7.004;2022-09-09T12:33:16;4.45;;;1.40;;
52564;SDS011;38460;53.106;7.004;2022-09-09T12:35:44;4.70;;;1.20;;
52564;SDS011;38460;53.106;7.004;2022-09-09T12:38:19;4.32;;;1.35;;
52564;SDS011;38460;53.106;7.004;2022-09-09T12:40:55;5.18;;;1.60;;
52564;SDS011;38460;53.106;7.004;2022-09-09T12:43:22;5.03;;;1.40;;
52564;SDS011;38460;53.106;7.004;2022-09-09T12:45:51;3.78;;;1.80;;
52564;SDS011;38460;53.106;7.004;2022-09-09T12:48:28;4.78;;;1.60;;
52564;SDS011;38460;53.106;7.004;2022-09-09T12:51:15;5.43;;;1.50;;
52564;SDS011;38460;53.106;7.004;2022-09-09T12:53:53;3.83;;;1.30;;
52564;SDS011;38460;53.106;7.004;2022-09-09T12:56:21;2.88;;;1.50;;
52564;SDS011;38460;53.106;7.004;2022-09-09T12:58:52;3.88;;;1.73;;
52564;SDS011;38460;53.106;7.004;2022-09-09T13:01:30;5.07;;;1.50;;
52564;SDS011;38460;53.106;7.004;2022-09-09T13:03:58;5.18;;;1.67;;
52564;SDS011;38460;53.106;7.004;2022-09-09T13:06:25;4.00;;;1.50;;
52564;SDS011;38460;53.106;7.004;2022-09-09T13:08:53;3.63;;;1.83;;
52564;SDS011;38460;53.106;7.004;2022-09-09T13:11:37;4.78;;;1.55;;
52564;SDS011;38460;53.106;7.004;2022-09-09T13:14:28;4.40;;;1.77;;
52564;SDS011;38460;53.106;7.004;2022-09-09T13:17:01;4.10;;;1.30;;
52564;SDS011;38460;53.106;7.004;2022-09-09T13:19:32;4.45;;;1.33;;
52564;SDS011;38460;53.106;7.004;2022-09-09T13:23:04;4.78;;;1.88;;
52564;SDS011;38460;53.106;7.004;2022-09-09T13:27:32;10.25;;;1.90;;
52564;SDS011;38460;53.106;7.004;2022-09-09T13:30:00;6.03;;;1.63;;
52564;SDS011;38460;53.106;7.004;2022-09-09T13:32:27;3.85;;;1.40;;
52564;SDS011;38460;53.106;7.004;2022-09-09T13:34:58;3.13;;;1.23;;
52564;SDS011;38460;53.106;7.004;2022-09-09T13:37:36;3.58;;;1.20;;
52564;SDS011;38460;53.106;7.004;2022-09-09T13:40:04;4.65;;;1.33;;
52564;SDS011;38460;53.106;7.004;2022-09-09T13:42:32;4.03;;;1.30;;
52564;SDS011;38460;53.106;7.004;2022-09-09T13:45:01;4.53;;;1.33;;
52564;SDS011;38460;53.106;7.004;2022-09-09T13:47:33;6.70;;;1.40;;
52564;SDS011;38460;53.106;7.004;2022-09-09T13:50:19;3.23;;;1.43;;
52564;SDS011;38460;53.106;7.004;2022-09-09T13:52:46;2.58;;;1.00;;
52564;SDS011;38460;53.106;7.004;2022-09-09T13:55:18;4.93;;;1.50;;
52564;SDS011;38460;53.106;7.004;2022-09-09T13:57:53;2.05;;;1.10;;
52564;SDS011;38460;53.106;7.004;2022-09-09T14:00:20;2.92;;;1.10;;
52564;SDS011;38460;53.106;7.004;2022-09-09T14:02:50;3.05;;;0.93;;
52564;SDS011;38460;53.106;7.004;2022-09-09T14:05:17;2.33;;;0.90;;
52564;SDS011;38460;53.106;7.004;2022-09-09T14:07:43;1.65;;;0.70;;
52564;SDS011;38460;53.106;7.004;2022-09-09T14:10:10;2.55;;;0.80;;
52564;SDS011;38460;53.106;7.004;2022-09-09T14:12:37;2.10;;;0.80;;
52564;SDS011;38460;53.106;7.004;2022-09-09T14:15:04;3.58;;;1.33;;
52564;SDS011;38460;53.106;7.004;2022-09-09T14:17:31;4.03;;;1.40;;
52564;SDS011;38460;53.106;7.004;2022-09-09T14:19:58;4.40;;;1.50;;
52564;SDS011;38460;53.106;7.004;2022-09-09T14:22:24;5.13;;;1.83;;
52564;SDS011;38460;53.106;7.004;2022-09-09T14:24:50;3.20;;;1.50;;
52564;SDS011;38460;53.106;7.004;2022-09-09T14:27:16;7.18;;;2.05;;
52564;SDS011;38460;53.106;7.004;2022-09-09T14:29:43;2.97;;;1.52;;
52564;SDS011;38460;53.106;7.004;2022-09-09T14:32:10;7.57;;;2.03;;
52564;SDS011;38460;53.106;7.004;2022-09-09T14:34:36;6.38;;;1.75;;
52564;SDS011;38460;53.106;7.004;2022-09-09T14:37:02;4.53;;;1.80;;
52564;SDS011;38460;53.106;7.004;2022-09-09T14:39:28;4.63;;;1.85;;
52564;SDS011;38460;53.106;7.004;2022-09-09T14:41:53;5.28;;;1.77;;
52564;SDS011;38460;53.106;7.004;2022-09-09T14:44:19;4.53;;;1.90;;
52564;SDS011;38460;53.106;7.004;2022-09-09T14:46:45;4.95;;;1.67;;
52564;SDS011;38460;53.106;7.004;2022-09-09T14:49:11;6.20;;;2.05;;
52564;SDS011;38460;53.106;7.004;2022-09-09T14:51:38;4.78;;;1.67;;
52564;SDS011;38460;53.106;7.004;2022-09-09T14:54:04;4.90;;;1.90;;
52564;SDS011;38460;53.106;7.004;2022-09-09T14:56:31;6.63;;;2.08;;
52564;SDS011;38460;53.106;7.004;2022-09-09T14:59:01;4.77;;;1.53;;
52564;SDS011;38460;53.106;7.004;2022-09-09T15:01:27;5.72;;;2.00;;
52564;SDS011;38460;53.106;7.004;2022-09-09T15:03:55;4.13;;;2.10;;
52564;SDS011;38460;53.106;7.004;2022-09-09T15:06:26;3.70;;;2.00;;
52564;SDS011;38460;53.106;7.004;2022-09-09T15:08:56;3.85;;;2.08;;
52564;SDS011;38460;53.106;7.004;2022-09-09T15:11:23;3.25;;;1.42;;
52564;SDS011;38460;53.106;7.004;2022-09-09T15:13:50;3.97;;;2.20;;
52564;SDS011;38460;53.106;7.004;2022-09-09T15:16:18;2.40;;;1.38;;
52564;SDS011;38460;53.106;7.004;2022-09-09T15:18:45;3.28;;;1.40;;
52564;SDS011;38460;53.106;7.004;2022-09-09T15:21:24;2.90;;;1.35;;
52564;SDS011;38460;53.106;7.004;2022-09-09T15:23:54;2.60;;;0.80;;
52564;SDS011;38460;53.106;7.004;2022-09-09T15:26:21;1.63;;;0.70;;
52564;SDS011;38460;53.106;7.004;2022-09-09T15:28:47;0.95;;;0.60;;
52564;SDS011;38460;53.106;7.004;2022-09-09T15:31:25;2.47;;;0.80;;
52564;SDS011;38460;53.106;7.004;2022-09-09T15:33:56;2.47;;;1.17;;
52564;SDS011;38460;53.106;7.004;2022-09-09T15:36:27;2.50;;;0.73;;
52564;SDS011;38460;53.106;7.004;2022-09-09T15:38:53;2.75;;;0.73;;
52564;SDS011;38460;53.106;7.004;2022-09-09T15:41:20;0.60;;;0.40;;
52564;SDS011;38460;53.106;7.004;2022-09-09T15:43:47;1.85;;;0.68;;
52564;SDS011;38460;53.106;7.004;2022-09-09T15:48:53;1.65;;;0.60;;
52564;SDS011;38460;53.106;7.004;2022-09-09T15:51:24;1.37;;;0.53;;
52564;SDS011;38460;53.106;7.004;2022-09-09T15:53:56;2.05;;;0.93;;
52564;SDS011;38460;53.106;7.004;2022-09-09T15:56:23;1.05;;;0.70;;
52564;SDS011;38460;53.106;7.004;2022-09-09T15:58:50;2.80;;;0.90;;
52564;SDS011;38460;53.106;7.004;2022-09-09T16:01:17;1.38;;;0.85;;
52564;SDS011;38460;53.106;7.004;2022-09-09T16:03:44;2.17;;;0.90;;
52564;SDS011;38460;53.106;7.004;2022-09-09T16:06:14;1.48;;;0.98;;
52564;SDS011;38460;53.106;7.004;2022-09-09T16:08:41;2.38;;;0.80;;
52564;SDS011;38460;53.106;7.004;2022-09-09T16:11:16;1.67;;;1.00;;
52564;SDS011;38460;53.106;7.004;2022-09-09T16:13:45;1.92;;;1.10;;
52564;SDS011;38460;53.106;7.004;2022-09-09T16:16:12;1.30;;;0.90;;
52564;SDS011;38460;53.106;7.004;2022-09-09T16:18:39;2.85;;;1.10;;
52564;SDS011;38460;53.106;7.004;2022-09-09T16:21:08;2.22;;;1.30;;
52564;SDS011;38460;53.106;7.004;2022-09-09T16:23:38;2.83;;;1.10;;
52564;SDS011;38460;53.106;7.004;2022-09-09T16:26:04;3.30;;;1.27;;
52564;SDS011;38460;53.106;7.004;2022-09-09T16:28:30;4.18;;;1.38;;
52564;SDS011;38460;53.106;7.004;2022-09-09T16:30:56;5.00;;;1.27;;
52564;SDS011;38460;53.106;7.004;2022-09-09T16:33:23;3.22;;;1.20;;
52564;SDS011;38460;53.106;7.004;2022-09-09T16:35:51;1.65;;;1.15;;
52564;SDS011;38460;53.106;7.004;2022-09-09T16:38:17;1.92;;;0.90;;
52564;SDS011;38460;53.106;7.004;2022-09-09T16:40:42;4.57;;;1.45;;
52564;SDS011;38460;53.106;7.004;2022-09-09T16:43:09;1.88;;;1.00;;
52564;SDS011;38460;53.106;7.004;2022-09-09T16:45:43;2.15;;;1.38;;
52564;SDS011;38460;53.106;7.004;2022-09-09T16:48:10;4.22;;;1.65;;
52564;SDS011;38460;53.106;7.004;2022-09-09T16:50:37;3.42;;;1.63;;
52564;SDS011;38460;53.106;7.004;2022-09-09T16:53:04;2.83;;;1.45;;
52564;SDS011;38460;53.106;7.004;2022-09-09T16:55:31;2.95;;;1.40;;
52564;SDS011;38460;53.106;7.004;2022-09-09T16:57:57;2.97;;;1.50;;
52564;SDS011;38460;53.106;7.004;2022-09-09T17:00:23;3.08;;;1.65;;
52564;SDS011;38460;53.106;7.004;2022-09-09T17:02:49;4.82;;;1.35;;
52564;SDS011;38460;53.106;7.004;2022-09-09T17:05:14;2.28;;;1.55;;
52564;SDS011;38460;53.106;7.004;2022-09-09T17:07:40;4.80;;;1.45;;
52564;SDS011;38460;53.106;7.004;2022-09-09T17:10:06;3.38;;;1.38;;
52564;SDS011;38460;53.106;7.004;2022-09-09T17:12:32;3.35;;;1.50;;
52564;SDS011;38460;53.106;7.004;2022-09-09T17:14:58;2.75;;;1.25;;
52564;SDS011;38460;53.106;7.004;2022-09-09T17:17:25;2.67;;;1.42;;
52564;SDS011;38460;53.106;7.004;2022-09-09T17:19:51;3.75;;;1.20;;
52564;SDS011;38460;53.106;7.004;2022-09-09T17:22:18;2.72;;;1.52;;